Time;durP1;ratioP1;P1;durP2;ratioP2;P2;SDS_P1;SDS_P2;PMS_P1;PMS_P2;Temp;Humidity;BMP_temperature;BMP_pressure;BME280_temperature;BME280_humidity;BME280_pressure;Samples;Min_cycle;Max_cycle;Signal;HPM_P1;HPM_P2
2022/09/03 00:03:23;;;;;;;1.13;0.90;;;;;;;18.47;57.01;96888.38;10352247;28;20042;-82
2022/09/03 00:09:05;;;;;;;1.38;0.82;;;;;;;18.47;57.00;96899.16;10351823;28;20043;-82
2022/09/03 00:14:30;;;;;;;1.50;1.00;;;;;;;18.50;57.07;96914.72;10338215;28;20042;-82
2022/09/03 00:19:57;;;;;;;1.13;0.80;;;;;;;18.48;57.07;96911.53;10350352;28;20117;-82
2022/09/03 00:25:34;;;;;;;1.30;0.90;;;;;;;18.50;57.07;96914.72;10363637;28;20046;-82
2022/09/03 00:31:11;;;;;;;1.02;0.80;;;;;;;18.48;57.21;96911.53;10349852;28;20057;-82
2022/09/03 00:36:41;;;;;;;0.95;0.85;;;;;;;18.49;57.17;96911.22;10356647;28;20047;-82
2022/09/03 00:42:20;;;;;;;1.42;1.00;;;;;;;18.50;57.14;96903.91;10337196;28;20061;-82
2022/09/03 00:47:42;;;;;;;;;;;;;;;18.49;57.22;96908.53;10357943;28;20049;-82
2022/09/03 00:53:23;;;;;;;0.93;0.80;;;;;;;18.49;57.15;96902.34;10355588;28;19928;-82
2022/09/03 00:58:54;;;;;;;1.08;0.88;;;;;;;18.50;57.42;96898.53;10352536;28;20042;-82
2022/09/03 01:04:51;;;;;;;1.15;0.80;;;;;;;18.50;57.27;96890.44;10348970;28;20038;-86
2022/09/03 01:10:16;;;;;;;1.33;0.70;;;;;;;18.49;57.33;96886.94;10341793;28;20521;-86
2022/09/03 01:15:48;;;;;;;1.02;0.80;;;;;;;18.50;57.26;96887.75;10373093;28;20038;-86
2022/09/03 01:21:37;;;;;;;0.80;0.80;;;;;;;18.51;57.35;96883.94;10336496;28;20047;-85
2022/09/03 01:27:07;;;;;;;0.75;0.75;;;;;;;18.50;57.40;96879.66;10322856;28;20042;-86
2022/09/03 01:32:42;;;;;;;0.63;0.60;;;;;;;18.50;57.23;96880.47;10360447;28;20039;-86
2022/09/03 01:38:08;;;;;;;1.40;0.75;;;;;;;18.51;57.31;96882.03;10349624;28;20120;-86
2022/09/03 01:43:38;;;;;;;1.08;0.82;;;;;;;18.51;57.30;96886.66;10348685;28;20454;-86
2022/09/03 01:49:10;;;;;;;0.85;0.80;;;;;;;18.51;57.42;96881.25;10346915;28;20050;-86
2022/09/03 01:54:49;;;;;;;0.80;0.60;;;;;;;18.51;57.54;96883.94;10360132;28;20042;-86
2022/09/03 02:00:12;;;;;;;0.90;0.70;;;;;;;18.51;57.56;96881.25;10405845;28;20485;-85
2022/09/03 02:05:34;;;;;;;1.15;0.68;;;;;;;18.52;57.44;96893.63;10382052;28;20049;-85
2022/09/03 02:10:58;;;;;;;0.73;0.73;;;;;;;18.52;57.43;96885.53;10391056;28;20052;-86
2022/09/03 02:16:25;;;;;;;0.73;0.70;;;;;;;18.51;57.66;96876.63;10377529;28;20045;-86
2022/09/03 02:21:50;;;;;;;0.75;0.70;;;;;;;18.51;57.64;96876.63;10387871;28;20038;-86
2022/09/03 02:27:09;;;;;;;1.23;0.90;;;;;;;18.52;57.58;96885.53;10368614;28;20445;-85
2022/09/03 02:32:29;;;;;;;0.70;0.70;;;;;;;18.52;57.79;96888.22;10391012;28;20108;-86
2022/09/03 02:37:48;;;;;;;1.27;0.80;;;;;;;18.52;57.58;96899.81;10392745;28;20046;-86
2022/09/03 02:43:32;;;;;;;0.63;0.63;;;;;;;18.52;57.56;96890.91;10381905;28;20405;-86
2022/09/03 02:48:52;;;;;;;0.70;0.60;;;;;;;18.52;57.70;96885.53;10376186;28;20054;-86
2022/09/03 02:54:12;;;;;;;1.02;0.60;;;;;;;18.52;57.61;96886.34;10369775;28;20388;-86
2022/09/03 02:59:33;;;;;;;1.10;0.75;;;;;;;18.53;57.78;96881.72;10378062;28;20478;-86
2022/09/03 03:04:53;;;;;;;1.05;0.82;;;;;;;18.51;57.64;96876.63;10393143;28;20033;-86
2022/09/03 03:10:13;;;;;;;0.80;0.70;;;;;;;18.52;57.72;96885.53;10408177;28;20046;-86
2022/09/03 03:15:33;;;;;;;0.50;0.50;;;;;;;18.51;57.60;96884.72;10386808;28;20037;-86
2022/09/03 03:20:53;;;;;;;0.80;0.80;;;;;;;18.52;57.76;96880.94;10401783;28;20052;-86
2022/09/03 03:26:17;;;;;;;1.23;0.70;;;;;;;18.53;57.67;96881.72;10350189;28;20088;-85
2022/09/03 03:31:36;;;;;;;0.52;0.52;;;;;;;18.52;57.69;96886.34;10388214;28;20048;-85
2022/09/03 03:36:55;;;;;;;0.60;0.60;;;;;;;18.52;57.83;96878.25;10385342;28;20037;-85
2022/09/03 03:42:15;;;;;;;0.57;0.57;;;;;;;18.53;57.91;96882.50;10385263;28;20042;-85
2022/09/03 03:47:35;;;;;;;0.95;0.80;;;;;;;18.53;57.67;96890.59;10387478;28;20046;-86
2022/09/03 03:52:58;;;;;;;0.75;0.75;;;;;;;18.53;57.68;96881.72;10377967;28;20405;-86
2022/09/03 03:58:17;;;;;;;1.15;0.82;;;;;;;18.52;57.85;96880.13;10400236;28;20562;-85
2022/09/03 04:03:37;;;;;;;0.60;0.60;;;;;;;18.52;57.91;96870.16;10356083;28;20049;-86
2022/09/03 04:08:57;;;;;;;0.65;0.50;;;;;;;18.52;57.83;96866.63;10385928;28;20126;-86
2022/09/03 04:14:17;;;;;;;0.68;0.63;;;;;;;18.54;57.78;96864.41;10332945;28;20050;-86
2022/09/03 04:19:37;;;;;;;0.60;0.60;;;;;;;18.52;57.81;96859.34;10390273;28;20069;-86
2022/09/03 04:24:56;;;;;;;0.60;0.60;;;;;;;18.52;57.86;96870.16;10343699;28;20049;-85
2022/09/03 04:30:16;;;;;;;0.88;0.70;;;;;;;18.52;57.74;96872.84;10377551;28;20053;-86
2022/09/03 04:35:35;;;;;;;0.80;0.63;;;;;;;18.53;57.71;96860.16;10376704;28;20042;-85
2022/09/03 04:40:54;;;;;;;1.00;0.70;;;;;;;18.53;57.94;96854.75;10384819;28;20447;-85
2022/09/03 04:46:15;;;;;;;2.05;0.63;;;;;;;18.54;57.81;96849.03;10395317;28;20048;-86
2022/09/03 04:51:36;;;;;;;1.90;0.60;;;;;;;18.53;58.05;96838.56;10402783;28;20054;-86
2022/09/03 04:56:56;;;;;;;1.95;0.77;;;;;;;18.56;58.17;96846.00;10370822;28;20064;-85
2022/09/03 05:02:15;;;;;;;1.08;0.60;;;;;;;18.54;58.30;96854.44;10384576;28;20404;-85
2022/09/03 05:07:37;;;;;;;2.25;0.80;;;;;;;18.55;58.14;96866.00;10404479;28;20449;-86
2022/09/03 05:13:04;;;;;;;0.73;0.60;;;;;;;18.51;56.56;96870.47;10356940;28;20089;-86
2022/09/03 05:18:24;;;;;;;1.35;0.70;;;;;;;18.51;57.19;96873.94;10412857;28;20053;-86
2022/09/03 05:23:45;;;;;;;1.80;0.90;;;;;;;18.50;56.43;96875.06;10364758;28;20037;-86
2022/09/03 05:29:06;;;;;;;2.13;0.90;;;;;;;18.49;56.34;96875.38;10391196;28;20060;-87
2022/09/03 05:34:27;;;;;;;1.63;0.82;;;;;;;18.50;56.75;96877.75;10389899;28;20050;-87
2022/09/03 05:39:46;;;;;;;1.45;0.98;;;;;;;18.52;57.10;96875.53;10369657;28;20537;-86
2022/09/03 05:45:09;;;;;;;1.90;1.20;;;;;;;18.52;57.23;96875.53;10366933;28;20050;-86
2022/09/03 05:50:28;;;;;;;3.50;1.20;;;;;;;18.53;57.23;96881.72;10360063;28;20054;-87
2022/09/03 05:55:57;;;;;;;5.32;1.85;;;;;;;18.53;57.20;96887.91;10382900;28;20053;-86
2022/09/03 06:01:23;;;;;;;8.20;2.13;;;;;;;18.53;57.39;96893.31;10366880;28;20042;-86
2022/09/03 06:06:43;;;;;;;10.90;2.08;;;;;;;18.55;57.59;96890.28;10394165;28;20401;-86
2022/09/03 06:12:03;;;;;;;7.70;2.10;;;;;;;18.55;57.48;96890.28;10377690;28;20034;-87
2022/09/03 06:17:22;;;;;;;8.90;2.22;;;;;;;18.55;57.54;96888.38;10369082;28;20041;-86
2022/09/03 06:22:47;;;;;;;12.63;3.15;;;;;;;18.56;57.71;96895.38;10374100;28;20034;-87
2022/09/03 06:28:07;;;;;;;11.32;2.70;;;;;;;18.56;57.70;96897.25;10380649;28;20049;-86
2022/09/03 06:33:32;;;;;;;8.63;2.47;;;;;;;18.58;57.70;96895.03;10399286;28;20042;-84
2022/09/03 06:38:53;;;;;;;9.82;2.20;;;;;;;18.58;57.73;96892.34;10387104;28;20477;-86
2022/09/03 06:44:14;;;;;;;6.65;2.20;;;;;;;18.59;57.64;96893.94;10386572;28;20064;-87
2022/09/03 06:49:33;;;;;;;6.55;2.22;;;;;;;18.59;57.70;96896.66;10385517;28;20052;-88
2022/09/03 06:54:52;;;;;;;6.95;2.40;;;;;;;18.61;57.84;96890.94;10311085;28;20574;-88
2022/09/03 07:00:13;;;;;;;9.15;2.42;;;;;;;18.61;57.68;96886.34;10353424;28;20045;-86
2022/09/03 07:05:32;;;;;;;11.38;3.20;;;;;;;18.60;57.88;96890.13;10319790;28;20490;-87
2022/09/03 07:10:52;;;;;;;9.23;2.95;;;;;;;18.61;58.18;96891.72;10344850;28;20042;-87
2022/09/03 07:16:13;;;;;;;7.57;2.58;;;;;;;18.60;57.55;96887.44;10370235;28;20038;-87
2022/09/03 07:21:35;;;;;;;11.15;3.53;;;;;;;18.60;57.84;96887.44;10358801;28;20048;-87
2022/09/03 07:26:56;;;;;;;8.85;3.22;;;;;;;18.61;58.09;96882.84;10358883;28;20042;-86
2022/09/03 07:32:16;;;;;;;8.15;2.80;;;;;;;18.62;58.30;96889.81;10343397;28;20534;-88
2022/09/03 07:37:37;;;;;;;6.57;2.35;;;;;;;18.61;58.31;96889.03;10334644;28;20042;-88
2022/09/03 07:43:03;;;;;;;7.63;2.45;;;;;;;18.62;58.31;96890.63;10331173;28;20405;-88
2022/09/03 07:48:22;;;;;;;7.47;2.53;;;;;;;18.63;58.46;96900.31;10330978;28;20053;-84
2022/09/03 07:53:44;;;;;;;8.50;2.38;;;;;;;18.64;58.45;96912.69;10320470;28;20061;-85
2022/09/03 07:59:04;;;;;;;6.35;2.30;;;;;;;18.62;58.38;96906.81;10347216;28;20049;-85
2022/09/03 08:04:24;;;;;;;3.97;2.17;;;;;;;18.65;58.36;96906.19;10344906;28;20042;-85
2022/09/03 08:09:44;;;;;;;5.55;2.00;;;;;;;18.66;58.40;96909.66;10330424;28;20062;-86
2022/09/03 08:15:04;;;;;;;5.88;2.10;;;;;;;18.65;58.57;96911.56;10348327;28;20042;-85
2022/09/03 08:20:23;;;;;;;6.47;2.15;;;;;;;18.67;58.58;96916.66;10346443;28;20054;-85
2022/09/03 08:25:43;;;;;;;6.47;2.05;;;;;;;18.67;58.56;96909.34;10341499;28;20037;-84
2022/09/03 08:31:10;;;;;;;7.68;2.17;;;;;;;18.67;58.57;96917.44;10338185;28;20049;-84
2022/09/03 08:36:31;;;;;;;4.82;1.88;;;;;;;18.66;58.10;96917.75;10365171;28;20390;-86
2022/09/03 08:42:17;;;;;;;4.25;1.70;;;;;;;18.61;54.85;96904.44;10342906;28;20097;-86
2022/09/03 08:47:42;;;;;;;4.35;1.95;;;;;;;18.55;54.59;96906.47;10355409;28;20089;-86
2022/09/03 08:53:06;;;;;;;6.90;1.63;;;;;;;18.54;54.54;96907.56;10362893;28;20062;-86
2022/09/03 08:58:27;;;;;;;2.78;1.60;;;;;;;18.53;53.88;96908.69;10378894;28;20129;-86
2022/09/03 09:03:52;;;;;;;2.60;1.40;;;;;;;18.53;53.59;96901.41;10395757;28;20042;-84
2022/09/03 09:09:47;;;;;;;2.78;1.60;;;;;;;18.52;52.81;96902.53;10396368;28;20054;-86
2022/09/03 09:15:36;;;;;;;2.30;1.58;;;;;;;18.51;52.98;96905.53;10331897;28;20115;-86
2022/09/03 09:21:01;;;;;;;3.08;1.30;;;;;;;18.53;53.88;96903.31;10374368;28;20061;-86
2022/09/03 09:26:21;;;;;;;2.47;1.20;;;;;;;18.55;54.43;96893.78;10397284;28;20075;-86
2022/09/03 09:31:43;;;;;;;3.08;1.50;;;;;;;18.57;54.79;96904.25;10389920;28;20408;-86
2022/09/03 09:37:10;;;;;;;3.42;1.25;;;;;;;18.58;54.98;96895.88;10400948;28;20187;-86
2022/09/03 09:42:30;;;;;;;5.05;1.50;;;;;;;18.61;55.19;96890.94;10399318;28;20044;-86
2022/09/03 09:47:54;;;;;;;2.90;1.48;;;;;;;18.62;55.31;96893.34;10375901;28;20041;-86
2022/09/03 09:53:17;;;;;;;3.72;1.40;;;;;;;18.61;54.78;96888.25;10367591;28;20394;-86
2022/09/03 09:58:37;;;;;;;3.25;1.27;;;;;;;18.61;55.07;96878.25;10350215;28;20042;-86
2022/09/03 10:04:09;;;;;;;1.55;1.45;;;;;;;18.61;55.48;96877.44;10375259;28;20053;-86
2022/09/03 10:09:29;;;;;;;2.70;1.48;;;;;;;18.63;55.84;96875.22;10376482;28;20056;-86
2022/09/03 10:14:56;;;;;;;2.08;1.38;;;;;;;18.63;55.12;96872.53;10374582;28;20041;-86
2022/09/03 10:20:26;;;;;;;3.63;1.73;;;;;;;18.63;54.86;96872.53;10388908;28;20042;-85
2022/09/03 10:25:50;;;;;;;3.78;1.40;;;;;;;18.61;54.93;96864.75;10413220;28;20119;-85
2022/09/03 10:31:35;;;;;;;2.35;1.70;;;;;;;18.61;53.88;96864.75;10386473;28;20523;-84
2022/09/03 10:37:11;;;;;;;2.33;1.40;;;;;;;18.62;54.20;96862.84;10376084;28;20096;-85
2022/09/03 10:42:40;;;;;;;2.10;1.42;;;;;;;18.63;54.32;96864.44;10358981;28;20041;-84
2022/09/03 10:48:10;;;;;;;2.33;1.40;;;;;;;18.65;54.27;96864.91;10410116;28;20045;-85
2022/09/03 10:53:58;;;;;;;2.60;1.50;;;;;;;18.64;54.07;96853.34;10339168;28;20054;-84
2022/09/03 10:59:40;;;;;;;2.63;1.50;;;;;;;18.65;54.35;96862.22;10368111;28;20046;-84
2022/09/03 11:05:07;;;;;;;1.42;1.30;;;;;;;18.66;54.89;96859.22;10373549;28;20529;-85
2022/09/03 11:10:39;;;;;;;2.50;1.60;;;;;;;18.68;55.13;96856.16;10372174;28;20085;-85
2022/09/03 11:16:08;;;;;;;3.72;1.45;;;;;;;18.69;55.25;96855.84;10357699;28;20409;-84
2022/09/03 11:21:29;;;;;;;2.85;1.50;;;;;;;18.68;55.14;96853.47;10348998;28;20054;-85
2022/09/03 11:26:59;;;;;;;1.65;1.27;;;;;;;18.69;55.20;96844.28;10359244;28;20053;-87
2022/09/03 11:32:24;;;;;;;3.65;1.40;;;;;;;18.69;54.83;96841.59;10373330;28;20042;-87
2022/09/03 11:37:53;;;;;;;2.15;1.60;;;;;;;18.73;55.36;96848.72;10362935;28;20041;-87
2022/09/03 11:43:26;;;;;;;2.28;1.50;;;;;;;18.75;55.47;96853.81;10331526;28;20100;-86
2022/09/03 11:48:51;;;;;;;1.90;1.63;;;;;;;18.76;55.95;96853.50;10344700;28;20117;-86
2022/09/03 11:54:19;;;;;;;6.13;3.45;;;;;;;18.78;55.84;96842.38;10379393;28;20054;-86
2022/09/03 11:59:41;;;;;;;5.65;3.50;;;;;;;18.78;55.12;96845.09;10380451;28;20042;-86
2022/09/03 12:05:10;;;;;;;5.20;2.88;;;;;;;18.76;54.64;96837.31;10357173;28;20048;-87
2022/09/03 12:10:40;;;;;;;2.53;2.13;;;;;;;18.78;56.12;96829.69;10380305;28;20104;-86
2022/09/03 12:16:38;;;;;;;5.22;2.25;;;;;;;18.81;57.04;96838.28;10395664;28;20042;-86
2022/09/03 12:22:03;;;;;;;4.10;2.80;;;;;;;18.84;58.05;96843.06;10391166;28;20100;-86
2022/09/03 12:27:24;;;;;;;3.30;1.85;;;;;;;18.84;57.31;96824.94;10378870;28;20050;-85
2022/09/03 12:32:46;;;;;;;2.00;1.75;;;;;;;18.84;57.09;96816.84;10351631;28;20042;-85
2022/09/03 12:38:05;;;;;;;2.40;1.60;;;;;;;18.83;56.90;96820.66;10383163;28;20068;-85
2022/09/03 12:43:28;;;;;;;2.90;1.45;;;;;;;18.85;56.00;96828.44;10354363;28;20046;-85
2022/09/03 12:49:04;;;;;;;2.20;1.52;;;;;;;18.82;56.14;96823.66;10383626;28;20045;-84
2022/09/03 12:54:24;;;;;;;2.05;1.70;;;;;;;18.82;56.05;96812.84;10358704;28;20061;-85
2022/09/03 12:59:45;;;;;;;2.60;1.70;;;;;;;18.82;56.35;96807.47;10363585;28;20507;-85
2022/09/03 13:05:06;;;;;;;1.95;1.60;;;;;;;18.84;56.10;96805.28;10368382;28;20041;-84
2022/09/03 13:10:28;;;;;;;2.65;1.70;;;;;;;18.84;56.19;96795.25;10376566;28;20045;-84
2022/09/03 13:16:08;;;;;;;1.83;1.58;;;;;;;18.88;56.68;96798.13;10376889;28;20042;-84
2022/09/03 13:21:56;;;;;;;2.55;1.75;;;;;;;18.88;56.63;96795.41;10388067;28;20041;-85
2022/09/03 13:27:22;;;;;;;1.63;1.50;;;;;;;18.90;56.65;96787.78;10391747;28;20486;-84
2022/09/03 13:32:59;;;;;;;1.70;1.60;;;;;;;18.89;56.31;96786.97;10369058;28;20049;-84
2022/09/03 13:38:31;;;;;;;2.13;1.42;;;;;;;18.89;56.19;96778.88;10412170;28;20046;-85
2022/09/03 13:43:56;;;;;;;1.70;1.60;;;;;;;18.89;55.42;96772.69;10375995;28;20042;-84
2022/09/03 13:55:22;;;;;;;3.85;1.50;;;;;;;18.91;56.14;96779.34;10402588;28;20042;-84
2022/09/03 14:00:56;;;;;;;1.88;1.50;;;;;;;18.93;55.33;96779.03;10381505;28;20038;-84
2022/09/03 14:06:38;;;;;;;1.45;1.30;;;;;;;18.94;55.52;96767.13;10400619;28;20049;-85
2022/09/03 14:12:12;;;;;;;2.28;1.48;;;;;;;18.96;55.78;96759.50;10361870;28;20257;-86
2022/09/03 14:17:47;;;;;;;3.20;1.60;;;;;;;18.98;55.87;96767.28;10378384;28;20096;-86
2022/09/03 14:23:48;;;;;;;2.83;1.48;;;;;;;18.96;55.88;96767.59;10366448;28;20098;-85
2022/09/03 14:29:10;;;;;;;2.45;1.50;;;;;;;18.96;55.92;96764.91;10342558;28;20628;-85
2022/09/03 14:34:38;;;;;;;1.70;1.60;;;;;;;18.96;55.90;96771.09;10395917;28;20042;-85
2022/09/03 14:40:07;;;;;;;3.13;1.73;;;;;;;18.97;56.05;96755.69;10387157;28;20068;-86
2022/09/03 14:45:48;;;;;;;1.80;1.52;;;;;;;18.99;56.04;96768.88;10403655;28;20041;-84
2022/09/03 14:51:42;;;;;;;2.13;1.63;;;;;;;19.00;56.09;96760.44;10362744;28;20424;-86
2022/09/03 14:57:16;;;;;;;2.17;1.58;;;;;;;19.02;56.12;96763.63;10359199;28;20192;-84
2022/09/03 15:02:47;;;;;;;2.22;1.40;;;;;;;19.03;55.58;96754.38;10343113;28;20045;-84
2022/09/03 15:08:32;;;;;;;2.15;1.33;;;;;;;19.03;55.48;96750.91;10354897;28;20048;-83
2022/09/03 15:14:13;;;;;;;1.70;1.35;;;;;;;19.03;55.19;96742.81;10316206;28;20548;-85
2022/09/03 15:19:42;;;;;;;2.30;1.58;;;;;;;19.02;55.18;96743.94;10379798;28;20486;-85
2022/09/03 15:25:10;;;;;;;1.67;1.48;;;;;;;19.00;55.06;96741.56;10346950;28;20125;-86
2022/09/03 15:30:38;;;;;;;2.90;1.30;;;;;;;19.00;55.27;96741.56;10369601;28;20061;-87
2022/09/03 15:36:05;;;;;;;1.40;1.30;;;;;;;19.02;55.78;96749.34;10353666;28;20046;-85
2022/09/03 15:41:39;;;;;;;2.45;1.38;;;;;;;19.04;56.12;96753.28;10337687;28;20042;-85
2022/09/03 15:47:04;;;;;;;2.38;1.40;;;;;;;19.05;56.11;96754.88;10384544;28;20038;-86
2022/09/03 15:52:52;;;;;;;2.55;1.50;;;;;;;19.05;56.19;96748.69;10319952;28;20045;-86
2022/09/03 15:58:32;;;;;;;3.30;1.48;;;;;;;19.04;56.26;96742.50;10387626;28;20049;-85
2022/09/03 16:03:54;;;;;;;1.75;1.35;;;;;;;19.06;56.31;96750.28;10361747;28;20043;-85
2022/09/03 16:09:41;;;;;;;1.42;1.33;;;;;;;19.06;56.41;96747.56;10385648;28;20405;-86
2022/09/03 16:15:23;;;;;;;2.50;1.63;;;;;;;19.07;56.36;96746.44;10379238;28;20038;-86
2022/09/03 16:20:47;;;;;;;2.47;1.63;;;;;;;19.07;56.26;96757.25;10356874;28;20041;-85
2022/09/03 16:26:34;;;;;;;1.52;1.40;;;;;;;19.06;56.24;96742.97;10369981;28;20048;-85
2022/09/03 16:32:26;;;;;;;1.90;1.60;;;;;;;19.05;56.33;96727.88;10382741;28;20417;-86
2022/09/03 16:38:12;;;;;;;1.98;1.77;;;;;;;19.06;56.33;96731.38;10367066;28;20056;-87
2022/09/03 16:43:45;;;;;;;2.20;1.90;;;;;;;19.06;56.27;96734.88;10395857;28;20452;-87
2022/09/03 16:50:07;;;;;;;2.22;1.90;;;;;;;19.06;56.41;96739.47;10353789;28;20444;-85
2022/09/03 16:55:47;;;;;;;3.47;1.80;;;;;;;19.05;56.81;96725.19;10323079;28;20042;-86
2022/09/03 17:01:16;;;;;;;2.20;1.83;;;;;;;19.05;56.86;96738.69;10378337;28;20065;-85
2022/09/03 17:07:13;;;;;;;2.47;2.10;;;;;;;19.04;56.96;96729.00;10391411;28;20057;-85
2022/09/03 17:12:41;;;;;;;2.20;1.85;;;;;;;19.03;57.14;96719.28;10352156;28;20069;-85
2022/09/03 17:18:19;;;;;;;2.00;1.77;;;;;;;19.03;57.34;96726.59;10390918;28;20041;-84
2022/09/03 17:23:52;;;;;;;3.47;1.87;;;;;;;19.04;57.77;96729.00;10390957;28;20042;-84
2022/09/03 17:29:25;;;;;;;4.75;1.90;;;;;;;19.04;57.78;96729.00;10408884;28;20296;-83
2022/09/03 17:34:53;;;;;;;2.55;1.90;;;;;;;19.05;57.96;96735.19;10382071;28;20045;-83
2022/09/03 17:40:40;;;;;;;2.10;1.70;;;;;;;19.05;58.20;96745.97;10393200;28;20045;-85
2022/09/03 17:46:06;;;;;;;3.20;1.83;;;;;;;19.05;58.26;96746.78;10362361;28;20038;-85
2022/09/03 17:51:38;;;;;;;3.20;1.90;;;;;;;19.07;58.29;96759.94;10399346;28;20065;-85
2022/09/03 17:57:09;;;;;;;2.25;1.88;;;;;;;19.08;58.35;96765.03;10366257;28;20081;-84
2022/09/03 18:02:34;;;;;;;5.50;2.00;;;;;;;19.07;58.41;96771.56;10381484;28;20041;-83
2022/09/03 18:08:01;;;;;;;3.92;2.03;;;;;;;19.09;58.58;96776.63;10399597;28;20049;-84
2022/09/03 18:13:52;;;;;;;3.60;1.80;;;;;;;19.09;58.47;96769.34;10404268;28;20049;-84
2022/09/03 20:10:36;;;;;;;2.88;1.92;;;;;;;19.08;59.43;96848.75;10371105;28;20042;-80
2022/09/03 20:16:02;;;;;;;3.40;1.60;;;;;;;19.09;59.41;96836.84;10386975;28;20091;-83
2022/09/03 20:21:38;;;;;;;3.88;1.60;;;;;;;19.10;59.26;96835.72;10392657;28;20034;-83
2022/09/03 20:27:18;;;;;;;2.90;1.50;;;;;;;19.11;59.30;96844.59;10394226;28;20418;-83
2022/09/03 20:32:50;;;;;;;2.10;1.52;;;;;;;19.11;59.15;96847.28;10364560;28;20053;-83
2022/09/03 20:38:31;;;;;;;4.07;1.77;;;;;;;19.10;59.27;96851.91;10396634;28;20113;-83
2022/09/03 20:44:15;;;;;;;2.80;1.83;;;;;;;19.10;59.20;96851.13;10390938;28;20432;-83
2022/09/03 20:50:02;;;;;;;1.92;1.50;;;;;;;19.11;59.23;96855.41;10377735;28;20038;-83
2022/09/03 20:55:32;;;;;;;1.52;1.42;;;;;;;19.10;59.16;96845.72;10379218;28;20041;-83
2022/09/03 21:01:02;;;;;;;2.25;1.70;;;;;;;19.11;59.23;96858.91;10392184;28;20045;-83
2022/09/03 21:06:41;;;;;;;1.85;1.42;;;;;;;19.11;59.28;96858.09;10404501;28;20055;-83
2022/09/03 21:12:24;;;;;;;3.70;1.67;;;;;;;19.10;59.35;96860.00;10383709;28;20042;-83
2022/09/03 21:18:13;;;;;;;2.42;1.60;;;;;;;19.09;59.27;96861.13;10391440;28;20048;-83
2022/09/03 21:23:33;;;;;;;;;;;;;;;19.09;59.52;96853.03;10384230;28;20054;-82
2022/09/03 21:29:15;;;;;;;1.88;1.63;;;;;;;19.09;59.30;96861.13;10389410;28;19929;-82
2022/09/03 21:34:37;;;;;;;1.70;1.60;;;;;;;19.10;59.39;96857.31;10373418;28;20030;-82
2022/09/03 21:39:56;;;;;;;3.92;1.77;;;;;;;19.10;59.36;96889.72;10390479;28;20057;-82
2022/09/03 21:45:45;;;;;;;2.55;1.70;;;;;;;19.10;59.46;96892.41;10403361;28;20038;-82
2022/09/03 21:51:10;;;;;;;;;;;;;;;19.10;59.52;96895.13;10394039;28;20116;-82
2022/09/03 21:56:44;;;;;;;3.05;1.70;;;;;;;19.10;59.40;96894.31;10364781;28;19936;-82
2022/09/03 22:02:09;;;;;;;2.10;1.65;;;;;;;19.11;59.47;96904.00;10393165;28;20038;-82
2022/09/03 22:07:43;;;;;;;3.25;1.70;;;;;;;19.11;59.40;96895.91;10392385;28;20056;-82
2022/09/03 22:13:29;;;;;;;2.92;1.50;;;;;;;19.10;59.39;96895.13;10374705;28;20094;-82
2022/09/03 22:18:49;;;;;;;2.17;1.45;;;;;;;19.10;59.28;96905.91;10391141;28;20038;-83
2022/09/03 22:25:00;;;;;;;1.88;1.60;;;;;;;19.11;59.35;96906.69;10402063;28;20088;-83
2022/09/03 22:30:20;;;;;;;1.63;1.50;;;;;;;19.10;59.42;96908.63;10331241;28;20521;-83
2022/09/03 22:36:02;;;;;;;3.65;1.65;;;;;;;19.12;59.34;96911.78;10405188;28;20046;-83
2022/09/03 22:41:22;;;;;;;2.80;1.60;;;;;;;19.11;59.34;96904.00;10393402;28;20034;-83
2022/09/03 22:47:11;;;;;;;1.60;1.50;;;;;;;19.12;59.34;96903.69;10388508;28;20448;-83
2022/09/03 22:52:49;;;;;;;1.95;1.63;;;;;;;19.11;59.35;96904.81;10342473;28;20050;-83
2022/09/03 22:58:15;;;;;;;2.72;1.55;;;;;;;19.10;59.31;96902.44;10398547;28;20065;-82
2022/09/03 23:03:47;;;;;;;1.77;1.65;;;;;;;19.11;59.16;96898.59;10376596;28;20045;-82
2022/09/03 23:09:14;;;;;;;1.55;1.45;;;;;;;19.12;59.39;96911.00;10372460;28;20052;-82
2022/09/03 23:14:47;;;;;;;2.60;1.43;;;;;;;19.12;59.31;96913.72;10386022;28;20041;-82
2022/09/03 23:20:16;;;;;;;2.47;1.48;;;;;;;19.10;59.21;96916.72;10362574;28;20042;-82
2022/09/03 23:25:45;;;;;;;2.28;1.50;;;;;;;19.12;59.32;96913.72;10368356;28;20038;-82
2022/09/03 23:31:18;;;;;;;1.63;1.40;;;;;;;19.11;59.33;96914.81;10364610;28;20045;-83
2022/09/03 23:36:53;;;;;;;2.00;1.60;;;;;;;19.12;59.32;96913.72;10364148;28;20453;-82
2022/09/03 23:42:54;;;;;;;1.67;1.50;;;;;;;19.12;59.28;96919.88;10372159;28;20049;-82
2022/09/03 23:48:30;;;;;;;1.98;1.50;;;;;;;19.11;59.28;96920.19;10364546;28;20121;-82
2022/09/03 23:54:02;;;;;;;1.52;1.30;;;;;;;19.12;59.28;96919.09;10365590;28;20058;-82
2022/09/03 23:59:21;;;;;;;1.42;1.30;;;;;;;19.12;59.25;96919.09;10377024;28;20046;-82
